Prattville, Michigan
Current Conditions -  °F | °C
As of 10:14 PM on Tuesday 25 Nov 2014 (Local Time) from KJYM Reporting Station
Overcast Overcast  
Wind Chill: 27°   Ceiling: 1800
Heat Index: 27°   Visibility: 10mi
Dew Point: 21°   Wind: 0mph
Humidity: 78%   Direction: NA
Pressure: 30.18"   Gusts: NA
Location:  41.8341°N, 84.4576°W
Report Text: KJYM 260314Z AUTO 00000KT 10SM OVC018 M03/M06 A3018 RMK AO2 T10281061
Loading
Personal Weather Stations






























Interactive Weather Map New forecast layout! Learn more

10-Day Weather Forecast

Advertisements
Track Severe Weather on mobile